sensor_id;sensor_type;location;lat;lon;timestamp;P1;durP1;ratioP1;P2;durP2;ratioP2
55720;SDS011;41626;53.098;6.168;2023-06-22T00:00:48;25.63;;;23.17;;
55720;SDS011;41626;53.098;6.168;2023-06-22T00:03:15;30.30;;;27.40;;
55720;SDS011;41626;53.098;6.168;2023-06-22T00:05:41;28.13;;;25.23;;
55720;SDS011;41626;53.098;6.168;2023-06-22T00:08:06;29.63;;;26.77;;
55720;SDS011;41626;53.098;6.168;2023-06-22T00:10:32;29.07;;;26.30;;
55720;SDS011;41626;53.098;6.168;2023-06-22T00:12:58;29.38;;;26.50;;
55720;SDS011;41626;53.098;6.168;2023-06-22T00:15:24;28.88;;;25.90;;
55720;SDS011;41626;53.098;6.168;2023-06-22T00:17:49;32.03;;;28.90;;
55720;SDS011;41626;53.098;6.168;2023-06-22T00:20:16;32.78;;;29.58;;
55720;SDS011;41626;53.098;6.168;2023-06-22T00:22:43;31.77;;;28.60;;
55720;SDS011;41626;53.098;6.168;2023-06-22T00:25:09;32.67;;;29.48;;
55720;SDS011;41626;53.098;6.168;2023-06-22T00:27:35;32.65;;;29.50;;
55720;SDS011;41626;53.098;6.168;2023-06-22T00:30:02;30.27;;;27.33;;
55720;SDS011;41626;53.098;6.168;2023-06-22T00:32:28;29.40;;;26.55;;
55720;SDS011;41626;53.098;6.168;2023-06-22T00:34:54;31.85;;;28.65;;
55720;SDS011;41626;53.098;6.168;2023-06-22T00:37:20;31.63;;;28.63;;
55720;SDS011;41626;53.098;6.168;2023-06-22T00:39:50;28.20;;;25.50;;
55720;SDS011;41626;53.098;6.168;2023-06-22T00:42:16;31.63;;;28.23;;
55720;SDS011;41626;53.098;6.168;2023-06-22T00:44:42;28.75;;;25.95;;
55720;SDS011;41626;53.098;6.168;2023-06-22T00:47:10;26.83;;;24.15;;
55720;SDS011;41626;53.098;6.168;2023-06-22T00:49:38;28.98;;;26.10;;
55720;SDS011;41626;53.098;6.168;2023-06-22T00:52:04;28.83;;;25.83;;
55720;SDS011;41626;53.098;6.168;2023-06-22T00:54:41;28.65;;;25.65;;
55720;SDS011;41626;53.098;6.168;2023-06-22T00:57:13;29.33;;;26.27;;
55720;SDS011;41626;53.098;6.168;2023-06-22T00:59:47;28.27;;;25.33;;
55720;SDS011;41626;53.098;6.168;2023-06-22T01:02:13;28.58;;;25.85;;
55720;SDS011;41626;53.098;6.168;2023-06-22T01:04:40;24.55;;;21.95;;
55720;SDS011;41626;53.098;6.168;2023-06-22T01:09:46;21.23;;;19.13;;
55720;SDS011;41626;53.098;6.168;2023-06-22T01:12:24;20.13;;;18.13;;
55720;SDS011;41626;53.098;6.168;2023-06-22T01:14:55;20.85;;;18.77;;
55720;SDS011;41626;53.098;6.168;2023-06-22T01:17:30;20.00;;;17.98;;
55720;SDS011;41626;53.098;6.168;2023-06-22T01:19:57;21.23;;;19.25;;
55720;SDS011;41626;53.098;6.168;2023-06-22T01:22:26;20.90;;;18.90;;
55720;SDS011;41626;53.098;6.168;2023-06-22T01:25:12;19.95;;;18.10;;
55720;SDS011;41626;53.098;6.168;2023-06-22T01:30:40;19.73;;;17.83;;
55720;SDS011;41626;53.098;6.168;2023-06-22T01:33:09;21.00;;;19.00;;
55720;SDS011;41626;53.098;6.168;2023-06-22T01:35:36;22.40;;;20.55;;
55720;SDS011;41626;53.098;6.168;2023-06-22T01:38:03;23.27;;;21.15;;
55720;SDS011;41626;53.098;6.168;2023-06-22T01:40:29;20.75;;;18.77;;
55720;SDS011;41626;53.098;6.168;2023-06-22T01:42:56;21.37;;;19.37;;
55720;SDS011;41626;53.098;6.168;2023-06-22T01:45:22;17.05;;;15.50;;
55720;SDS011;41626;53.098;6.168;2023-06-22T01:47:49;20.92;;;18.92;;
55720;SDS011;41626;53.098;6.168;2023-06-22T01:50:15;21.40;;;19.50;;
55720;SDS011;41626;53.098;6.168;2023-06-22T01:52:42;30.50;;;25.58;;
55720;SDS011;41626;53.098;6.168;2023-06-22T01:55:07;26.77;;;23.60;;
55720;SDS011;41626;53.098;6.168;2023-06-22T01:57:33;42.67;;;27.10;;
55720;SDS011;41626;53.098;6.168;2023-06-22T02:00:03;132.48;;;24.05;;
55720;SDS011;41626;53.098;6.168;2023-06-22T02:02:33;179.68;;;27.67;;
55720;SDS011;41626;53.098;6.168;2023-06-22T02:05:07;250.77;;;32.00;;
55720;SDS011;41626;53.098;6.168;2023-06-22T02:07:41;141.85;;;24.52;;
55720;SDS011;41626;53.098;6.168;2023-06-22T02:10:12;123.25;;;26.38;;
55720;SDS011;41626;53.098;6.168;2023-06-22T02:12:40;133.55;;;28.02;;
55720;SDS011;41626;53.098;6.168;2023-06-22T02:15:08;54.78;;;22.98;;
55720;SDS011;41626;53.098;6.168;2023-06-22T02:17:37;44.88;;;22.95;;
55720;SDS011;41626;53.098;6.168;2023-06-22T02:20:03;32.95;;;24.83;;
55720;SDS011;41626;53.098;6.168;2023-06-22T02:22:32;25.63;;;23.30;;
55720;SDS011;41626;53.098;6.168;2023-06-22T02:24:58;33.97;;;23.38;;
55720;SDS011;41626;53.098;6.168;2023-06-22T02:27:24;31.43;;;23.50;;
55720;SDS011;41626;53.098;6.168;2023-06-22T02:29:49;49.00;;;30.27;;
55720;SDS011;41626;53.098;6.168;2023-06-22T02:32:15;33.35;;;28.10;;
55720;SDS011;41626;53.098;6.168;2023-06-22T02:34:42;43.77;;;28.07;;
55720;SDS011;41626;53.098;6.168;2023-06-22T02:37:12;75.85;;;27.27;;
55720;SDS011;41626;53.098;6.168;2023-06-22T02:39:41;45.35;;;29.27;;
55720;SDS011;41626;53.098;6.168;2023-06-22T02:42:06;36.92;;;26.95;;
55720;SDS011;41626;53.098;6.168;2023-06-22T02:44:32;46.97;;;27.77;;
55720;SDS011;41626;53.098;6.168;2023-06-22T02:46:58;26.48;;;24.15;;
55720;SDS011;41626;53.098;6.168;2023-06-22T02:49:24;29.77;;;27.03;;
55720;SDS011;41626;53.098;6.168;2023-06-22T02:51:50;27.63;;;25.17;;
55720;SDS011;41626;53.098;6.168;2023-06-22T02:54:15;27.57;;;25.20;;
55720;SDS011;41626;53.098;6.168;2023-06-22T02:56:41;30.90;;;28.05;;
55720;SDS011;41626;53.098;6.168;2023-06-22T02:59:10;27.63;;;25.25;;
55720;SDS011;41626;53.098;6.168;2023-06-22T03:01:36;28.37;;;26.00;;
55720;SDS011;41626;53.098;6.168;2023-06-22T03:04:05;25.13;;;23.02;;
55720;SDS011;41626;53.098;6.168;2023-06-22T03:06:32;26.20;;;23.98;;
55720;SDS011;41626;53.098;6.168;2023-06-22T03:09:01;24.63;;;22.50;;
55720;SDS011;41626;53.098;6.168;2023-06-22T03:11:29;23.80;;;21.88;;
55720;SDS011;41626;53.098;6.168;2023-06-22T03:13:55;26.40;;;24.10;;
55720;SDS011;41626;53.098;6.168;2023-06-22T03:16:21;23.67;;;21.67;;
55720;SDS011;41626;53.098;6.168;2023-06-22T03:18:47;21.65;;;19.95;;
55720;SDS011;41626;53.098;6.168;2023-06-22T03:21:13;21.73;;;19.92;;
55720;SDS011;41626;53.098;6.168;2023-06-22T03:23:40;19.85;;;18.35;;
55720;SDS011;41626;53.098;6.168;2023-06-22T03:26:06;19.37;;;17.90;;
55720;SDS011;41626;53.098;6.168;2023-06-22T03:28:33;19.00;;;17.60;;
55720;SDS011;41626;53.098;6.168;2023-06-22T03:30:59;19.25;;;17.75;;
55720;SDS011;41626;53.098;6.168;2023-06-22T03:33:25;16.97;;;15.77;;
55720;SDS011;41626;53.098;6.168;2023-06-22T03:35:50;18.67;;;17.17;;
55720;SDS011;41626;53.098;6.168;2023-06-22T03:38:16;19.35;;;17.85;;
55720;SDS011;41626;53.098;6.168;2023-06-22T03:40:42;19.02;;;17.63;;
55720;SDS011;41626;53.098;6.168;2023-06-22T03:43:08;19.33;;;17.92;;
55720;SDS011;41626;53.098;6.168;2023-06-22T03:45:34;19.70;;;18.20;;
55720;SDS011;41626;53.098;6.168;2023-06-22T03:48:00;20.27;;;18.83;;
55720;SDS011;41626;53.098;6.168;2023-06-22T03:50:26;18.88;;;17.48;;
55720;SDS011;41626;53.098;6.168;2023-06-22T03:52:52;18.35;;;16.90;;
55720;SDS011;41626;53.098;6.168;2023-06-22T03:55:19;19.20;;;17.70;;
55720;SDS011;41626;53.098;6.168;2023-06-22T03:57:45;18.10;;;16.80;;
55720;SDS011;41626;53.098;6.168;2023-06-22T04:00:11;18.27;;;16.90;;
55720;SDS011;41626;53.098;6.168;2023-06-22T04:02:37;18.37;;;17.00;;
55720;SDS011;41626;53.098;6.168;2023-06-22T04:05:03;19.53;;;17.83;;
55720;SDS011;41626;53.098;6.168;2023-06-22T04:07:30;19.55;;;17.85;;
55720;SDS011;41626;53.098;6.168;2023-06-22T04:09:56;19.77;;;17.98;;
55720;SDS011;41626;53.098;6.168;2023-06-22T04:12:21;20.05;;;18.45;;
55720;SDS011;41626;53.098;6.168;2023-06-22T04:14:47;20.73;;;18.92;;
55720;SDS011;41626;53.098;6.168;2023-06-22T04:17:13;21.70;;;19.70;;
55720;SDS011;41626;53.098;6.168;2023-06-22T04:19:42;22.48;;;19.45;;
55720;SDS011;41626;53.098;6.168;2023-06-22T04:22:08;23.60;;;19.70;;
55720;SDS011;41626;53.098;6.168;2023-06-22T04:24:35;44.13;;;21.60;;
55720;SDS011;41626;53.098;6.168;2023-06-22T04:27:00;149.30;;;25.77;;
55720;SDS011;41626;53.098;6.168;2023-06-22T04:29:27;109.70;;;24.67;;
55720;SDS011;41626;53.098;6.168;2023-06-22T04:31:55;88.97;;;24.73;;
55720;SDS011;41626;53.098;6.168;2023-06-22T04:34:23;70.53;;;23.67;;
55720;SDS011;41626;53.098;6.168;2023-06-22T04:36:54;86.00;;;26.10;;
55720;SDS011;41626;53.098;6.168;2023-06-22T04:39:20;117.30;;;25.15;;
55720;SDS011;41626;53.098;6.168;2023-06-22T04:41:46;54.10;;;23.55;;
55720;SDS011;41626;53.098;6.168;2023-06-22T04:44:16;52.08;;;25.77;;
55720;SDS011;41626;53.098;6.168;2023-06-22T04:46:58;36.38;;;24.65;;
55720;SDS011;41626;53.098;6.168;2023-06-22T04:49:29;62.72;;;27.70;;
55720;SDS011;41626;53.098;6.168;2023-06-22T04:52:05;33.65;;;24.63;;
55720;SDS011;41626;53.098;6.168;2023-06-22T04:54:33;63.35;;;30.63;;
55720;SDS011;41626;53.098;6.168;2023-06-22T04:57:00;30.52;;;27.00;;
55720;SDS011;41626;53.098;6.168;2023-06-22T04:59:29;30.23;;;25.38;;
55720;SDS011;41626;53.098;6.168;2023-06-22T05:02:02;30.48;;;27.55;;
55720;SDS011;41626;53.098;6.168;2023-06-22T05:04:28;28.50;;;25.73;;
55720;SDS011;41626;53.098;6.168;2023-06-22T05:06:58;29.70;;;26.70;;
55720;SDS011;41626;53.098;6.168;2023-06-22T05:09:25;32.08;;;28.98;;
55720;SDS011;41626;53.098;6.168;2023-06-22T05:11:51;35.47;;;31.60;;
55720;SDS011;41626;53.098;6.168;2023-06-22T05:14:17;38.63;;;31.02;;
55720;SDS011;41626;53.098;6.168;2023-06-22T05:16:43;33.20;;;29.90;;
55720;SDS011;41626;53.098;6.168;2023-06-22T05:19:09;32.43;;;29.23;;
55720;SDS011;41626;53.098;6.168;2023-06-22T05:21:35;31.05;;;28.20;;
55720;SDS011;41626;53.098;6.168;2023-06-22T05:24:02;33.03;;;29.60;;
55720;SDS011;41626;53.098;6.168;2023-06-22T05:26:28;32.90;;;29.35;;
55720;SDS011;41626;53.098;6.168;2023-06-22T05:28:55;33.22;;;29.45;;
55720;SDS011;41626;53.098;6.168;2023-06-22T05:31:21;35.05;;;31.45;;
55720;SDS011;41626;53.098;6.168;2023-06-22T05:33:48;43.65;;;34.88;;
55720;SDS011;41626;53.098;6.168;2023-06-22T05:36:15;33.67;;;30.38;;
55720;SDS011;41626;53.098;6.168;2023-06-22T05:38:41;36.83;;;32.88;;
55720;SDS011;41626;53.098;6.168;2023-06-22T05:41:07;33.03;;;29.98;;
55720;SDS011;41626;53.098;6.168;2023-06-22T05:43:33;33.10;;;30.10;;
55720;SDS011;41626;53.098;6.168;2023-06-22T05:46:02;35.47;;;32.05;;
55720;SDS011;41626;53.098;6.168;2023-06-22T05:48:28;33.05;;;29.85;;
55720;SDS011;41626;53.098;6.168;2023-06-22T05:50:54;36.30;;;32.80;;
55720;SDS011;41626;53.098;6.168;2023-06-22T05:53:20;36.50;;;33.10;;
55720;SDS011;41626;53.098;6.168;2023-06-22T05:55:46;38.63;;;34.85;;
55720;SDS011;41626;53.098;6.168;2023-06-22T05:58:12;37.70;;;34.20;;
55720;SDS011;41626;53.098;6.168;2023-06-22T06:00:38;39.30;;;35.30;;
55720;SDS011;41626;53.098;6.168;2023-06-22T06:03:05;38.67;;;34.72;;
55720;SDS011;41626;53.098;6.168;2023-06-22T06:05:35;38.60;;;34.97;;
55720;SDS011;41626;53.098;6.168;2023-06-22T06:08:02;37.50;;;33.80;;
55720;SDS011;41626;53.098;6.168;2023-06-22T06:10:30;39.38;;;35.67;;
55720;SDS011;41626;53.098;6.168;2023-06-22T06:12:59;39.22;;;35.38;;
55720;SDS011;41626;53.098;6.168;2023-06-22T06:15:27;41.07;;;36.83;;
55720;SDS011;41626;53.098;6.168;2023-06-22T06:17:54;38.90;;;35.28;;
55720;SDS011;41626;53.098;6.168;2023-06-22T06:20:20;40.80;;;36.75;;
55720;SDS011;41626;53.098;6.168;2023-06-22T06:22:48;40.42;;;36.20;;
55720;SDS011;41626;53.098;6.168;2023-06-22T06:25:14;38.97;;;35.20;;
55720;SDS011;41626;53.098;6.168;2023-06-22T06:27:44;36.28;;;32.70;;
55720;SDS011;41626;53.098;6.168;2023-06-22T06:30:14;38.35;;;34.75;;
55720;SDS011;41626;53.098;6.168;2023-06-22T06:32:41;39.22;;;35.22;;
55720;SDS011;41626;53.098;6.168;2023-06-22T06:35:07;38.65;;;34.92;;
55720;SDS011;41626;53.098;6.168;2023-06-22T06:37:38;37.88;;;33.88;;
55720;SDS011;41626;53.098;6.168;2023-06-22T06:40:05;37.13;;;33.42;;
55720;SDS011;41626;53.098;6.168;2023-06-22T06:42:38;37.05;;;33.53;;
55720;SDS011;41626;53.098;6.168;2023-06-22T06:47:42;37.08;;;33.50;;
55720;SDS011;41626;53.098;6.168;2023-06-22T06:50:08;35.88;;;32.33;;
55720;SDS011;41626;53.098;6.168;2023-06-22T06:52:34;36.15;;;32.65;;
55720;SDS011;41626;53.098;6.168;2023-06-22T06:55:00;35.50;;;31.75;;
55720;SDS011;41626;53.098;6.168;2023-06-22T06:57:26;35.35;;;31.95;;
55720;SDS011;41626;53.098;6.168;2023-06-22T06:59:56;34.25;;;30.98;;
55720;SDS011;41626;53.098;6.168;2023-06-22T07:02:23;35.63;;;32.22;;
55720;SDS011;41626;53.098;6.168;2023-06-22T07:04:49;34.85;;;31.48;;
55720;SDS011;41626;53.098;6.168;2023-06-22T07:07:15;32.65;;;29.55;;
55720;SDS011;41626;53.098;6.168;2023-06-22T07:09:40;31.73;;;28.67;;
55720;SDS011;41626;53.098;6.168;2023-06-22T07:12:06;31.90;;;29.00;;
55720;SDS011;41626;53.098;6.168;2023-06-22T07:14:32;30.33;;;27.40;;
55720;SDS011;41626;53.098;6.168;2023-06-22T07:16:58;29.05;;;26.15;;
55720;SDS011;41626;53.098;6.168;2023-06-22T07:19:24;24.23;;;21.70;;
55720;SDS011;41626;53.098;6.168;2023-06-22T07:21:51;24.25;;;22.08;;
55720;SDS011;41626;53.098;6.168;2023-06-22T07:24:20;23.70;;;21.30;;
55720;SDS011;41626;53.098;6.168;2023-06-22T07:26:47;22.02;;;20.02;;
55720;SDS011;41626;53.098;6.168;2023-06-22T07:29:14;22.83;;;20.65;;
55720;SDS011;41626;53.098;6.168;2023-06-22T07:31:46;22.92;;;20.83;;
55720;SDS011;41626;53.098;6.168;2023-06-22T07:34:12;21.07;;;18.97;;
55720;SDS011;41626;53.098;6.168;2023-06-22T07:36:38;21.35;;;19.35;;
55720;SDS011;41626;53.098;6.168;2023-06-22T07:39:04;20.90;;;18.90;;
55720;SDS011;41626;53.098;6.168;2023-06-22T07:41:30;21.08;;;19.08;;
55720;SDS011;41626;53.098;6.168;2023-06-22T07:43:56;20.27;;;18.23;;
55720;SDS011;41626;53.098;6.168;2023-06-22T07:46:22;20.40;;;18.50;;
55720;SDS011;41626;53.098;6.168;2023-06-22T07:48:48;20.25;;;18.23;;
55720;SDS011;41626;53.098;6.168;2023-06-22T07:51:14;18.73;;;16.98;;
55720;SDS011;41626;53.098;6.168;2023-06-22T07:53:40;18.30;;;16.50;;
55720;SDS011;41626;53.098;6.168;2023-06-22T07:56:06;18.25;;;14.02;;
55720;SDS011;41626;53.098;6.168;2023-06-22T07:58:34;15.43;;;13.93;;
55720;SDS011;41626;53.098;6.168;2023-06-22T08:01:00;20.55;;;14.73;;
55720;SDS011;41626;53.098;6.168;2023-06-22T08:03:26;16.38;;;14.77;;
55720;SDS011;41626;53.098;6.168;2023-06-22T08:05:52;18.95;;;12.63;;
55720;SDS011;41626;53.098;6.168;2023-06-22T08:08:17;11.82;;;10.55;;
55720;SDS011;41626;53.098;6.168;2023-06-22T08:10:43;11.00;;;9.82;;
55720;SDS011;41626;53.098;6.168;2023-06-22T08:13:09;13.27;;;11.57;;
55720;SDS011;41626;53.098;6.168;2023-06-22T08:15:35;14.27;;;10.30;;
55720;SDS011;41626;53.098;6.168;2023-06-22T08:18:01;14.50;;;11.18;;
55720;SDS011;41626;53.098;6.168;2023-06-22T08:20:27;12.90;;;9.63;;
55720;SDS011;41626;53.098;6.168;2023-06-22T08:22:53;13.18;;;10.75;;
55720;SDS011;41626;53.098;6.168;2023-06-22T08:25:20;12.63;;;9.90;;
55720;SDS011;41626;53.098;6.168;2023-06-22T08:27:46;14.32;;;11.43;;
55720;SDS011;41626;53.098;6.168;2023-06-22T08:30:13;14.88;;;11.20;;
55720;SDS011;41626;53.098;6.168;2023-06-22T08:32:39;14.32;;;11.07;;
55720;SDS011;41626;53.098;6.168;2023-06-22T08:35:05;13.52;;;11.63;;
55720;SDS011;41626;53.098;6.168;2023-06-22T08:37:34;16.98;;;12.35;;
55720;SDS011;41626;53.098;6.168;2023-06-22T08:40:01;16.40;;;12.95;;
55720;SDS011;41626;53.098;6.168;2023-06-22T08:42:40;13.43;;;11.88;;
55720;SDS011;41626;53.098;6.168;2023-06-22T08:45:06;12.18;;;10.35;;
55720;SDS011;41626;53.098;6.168;2023-06-22T08:47:32;12.27;;;11.15;;
55720;SDS011;41626;53.098;6.168;2023-06-22T08:49:58;11.75;;;9.18;;
55720;SDS011;41626;53.098;6.168;2023-06-22T08:52:24;18.80;;;11.75;;
55720;SDS011;41626;53.098;6.168;2023-06-22T08:54:51;15.77;;;12.25;;
55720;SDS011;41626;53.098;6.168;2023-06-22T08:57:16;14.55;;;10.30;;
55720;SDS011;41626;53.098;6.168;2023-06-22T08:59:42;13.25;;;10.85;;
55720;SDS011;41626;53.098;6.168;2023-06-22T09:02:08;14.45;;;10.02;;
55720;SDS011;41626;53.098;6.168;2023-06-22T09:04:36;11.60;;;9.60;;
55720;SDS011;41626;53.098;6.168;2023-06-22T09:07:02;12.02;;;10.90;;
55720;SDS011;41626;53.098;6.168;2023-06-22T09:09:28;13.75;;;9.90;;
55720;SDS011;41626;53.098;6.168;2023-06-22T09:11:53;13.93;;;10.95;;
55720;SDS011;41626;53.098;6.168;2023-06-22T09:14:19;11.52;;;10.30;;
55720;SDS011;41626;53.098;6.168;2023-06-22T09:16:45;14.57;;;10.98;;
55720;SDS011;41626;53.098;6.168;2023-06-22T09:19:10;11.18;;;9.80;;
55720;SDS011;41626;53.098;6.168;2023-06-22T09:21:37;11.05;;;8.88;;
55720;SDS011;41626;53.098;6.168;2023-06-22T09:24:03;12.80;;;9.77;;
55720;SDS011;41626;53.098;6.168;2023-06-22T09:26:29;12.93;;;10.80;;
55720;SDS011;41626;53.098;6.168;2023-06-22T09:28:54;12.40;;;10.63;;
55720;SDS011;41626;53.098;6.168;2023-06-22T09:31:20;13.98;;;10.63;;
55720;SDS011;41626;53.098;6.168;2023-06-22T09:33:52;10.65;;;8.73;;
55720;SDS011;41626;53.098;6.168;2023-06-22T09:36:19;12.60;;;10.48;;
55720;SDS011;41626;53.098;6.168;2023-06-22T09:38:46;10.07;;;8.90;;
55720;SDS011;41626;53.098;6.168;2023-06-22T09:41:12;11.55;;;10.27;;
55720;SDS011;41626;53.098;6.168;2023-06-22T09:43:38;15.18;;;10.25;;
55720;SDS011;41626;53.098;6.168;2023-06-22T09:46:03;12.27;;;9.27;;
55720;SDS011;41626;53.098;6.168;2023-06-22T09:48:29;9.63;;;8.43;;
55720;SDS011;41626;53.098;6.168;2023-06-22T09:50:55;9.52;;;8.50;;
55720;SDS011;41626;53.098;6.168;2023-06-22T09:53:21;11.63;;;10.05;;
55720;SDS011;41626;53.098;6.168;2023-06-22T09:55:47;9.70;;;8.55;;
55720;SDS011;41626;53.098;6.168;2023-06-22T09:58:12;12.23;;;8.40;;
55720;SDS011;41626;53.098;6.168;2023-06-22T10:00:38;11.77;;;9.90;;
55720;SDS011;41626;53.098;6.168;2023-06-22T10:03:06;12.48;;;9.18;;
55720;SDS011;41626;53.098;6.168;2023-06-22T10:05:32;10.40;;;8.65;;
55720;SDS011;41626;53.098;6.168;2023-06-22T10:07:58;11.18;;;9.40;;
55720;SDS011;41626;53.098;6.168;2023-06-22T10:10:24;10.95;;;8.55;;
55720;SDS011;41626;53.098;6.168;2023-06-22T10:12:56;8.57;;;7.78;;
55720;SDS011;41626;53.098;6.168;2023-06-22T10:15:23;10.38;;;7.68;;
55720;SDS011;41626;53.098;6.168;2023-06-22T10:17:49;11.65;;;8.40;;
55720;SDS011;41626;53.098;6.168;2023-06-22T10:20:15;9.50;;;7.40;;
55720;SDS011;41626;53.098;6.168;2023-06-22T10:22:43;9.45;;;7.82;;
55720;SDS011;41626;53.098;6.168;2023-06-22T10:25:10;8.32;;;7.53;;
55720;SDS011;41626;53.098;6.168;2023-06-22T10:27:37;10.13;;;8.20;;
55720;SDS011;41626;53.098;6.168;2023-06-22T10:30:07;14.27;;;9.60;;
55720;SDS011;41626;53.098;6.168;2023-06-22T10:32:38;11.38;;;8.32;;
55720;SDS011;41626;53.098;6.168;2023-06-22T10:35:04;9.15;;;7.38;;
55720;SDS011;41626;53.098;6.168;2023-06-22T10:37:31;15.57;;;8.48;;
55720;SDS011;41626;53.098;6.168;2023-06-22T10:39:56;6.85;;;6.15;;
55720;SDS011;41626;53.098;6.168;2023-06-22T10:42:22;10.63;;;6.72;;
55720;SDS011;41626;53.098;6.168;2023-06-22T10:44:48;9.07;;;7.22;;
55720;SDS011;41626;53.098;6.168;2023-06-22T10:47:13;12.02;;;7.07;;
55720;SDS011;41626;53.098;6.168;2023-06-22T10:49:39;10.40;;;6.43;;
55720;SDS011;41626;53.098;6.168;2023-06-22T10:52:08;6.78;;;5.18;;
55720;SDS011;41626;53.098;6.168;2023-06-22T10:54:35;7.40;;;5.88;;
55720;SDS011;41626;53.098;6.168;2023-06-22T10:57:01;7.55;;;6.85;;
55720;SDS011;41626;53.098;6.168;2023-06-22T10:59:27;9.43;;;8.07;;
55720;SDS011;41626;53.098;6.168;2023-06-22T11:01:57;8.25;;;7.43;;
55720;SDS011;41626;53.098;6.168;2023-06-22T11:04:24;10.05;;;7.13;;
55720;SDS011;41626;53.098;6.168;2023-06-22T11:06:50;8.40;;;5.88;;
55720;SDS011;41626;53.098;6.168;2023-06-22T11:09:16;7.45;;;5.57;;
55720;SDS011;41626;53.098;6.168;2023-06-22T11:11:45;7.93;;;6.03;;
55720;SDS011;41626;53.098;6.168;2023-06-22T11:14:15;8.82;;;6.60;;
55720;SDS011;41626;53.098;6.168;2023-06-22T11:16:41;8.60;;;7.43;;
55720;SDS011;41626;53.098;6.168;2023-06-22T11:19:08;8.30;;;6.90;;
55720;SDS011;41626;53.098;6.168;2023-06-22T11:21:33;8.38;;;6.00;;
55720;SDS011;41626;53.098;6.168;2023-06-22T11:23:59;9.40;;;7.05;;
55720;SDS011;41626;53.098;6.168;2023-06-22T11:26:25;7.95;;;5.68;;
55720;SDS011;41626;53.098;6.168;2023-06-22T11:28:54;10.82;;;6.45;;
55720;SDS011;41626;53.098;6.168;2023-06-22T11:31:20;8.57;;;6.90;;
55720;SDS011;41626;53.098;6.168;2023-06-22T11:33:45;9.32;;;6.45;;
55720;SDS011;41626;53.098;6.168;2023-06-22T11:36:12;8.60;;;7.80;;
55720;SDS011;41626;53.098;6.168;2023-06-22T11:38:39;10.80;;;6.95;;
55720;SDS011;41626;53.098;6.168;2023-06-22T11:41:08;9.13;;;7.38;;
55720;SDS011;41626;53.098;6.168;2023-06-22T11:43:34;10.18;;;8.15;;
55720;SDS011;41626;53.098;6.168;2023-06-22T11:46:01;25.42;;;7.75;;
55720;SDS011;41626;53.098;6.168;2023-06-22T11:48:28;8.07;;;6.50;;
55720;SDS011;41626;53.098;6.168;2023-06-22T11:50:54;6.85;;;5.75;;
55720;SDS011;41626;53.098;6.168;2023-06-22T11:53:24;7.00;;;5.78;;
55720;SDS011;41626;53.098;6.168;2023-06-22T11:55:51;9.95;;;6.13;;
55720;SDS011;41626;53.098;6.168;2023-06-22T11:58:17;7.20;;;6.28;;
55720;SDS011;41626;53.098;6.168;2023-06-22T12:00:43;8.32;;;7.45;;
55720;SDS011;41626;53.098;6.168;2023-06-22T12:03:10;9.63;;;6.55;;
55720;SDS011;41626;53.098;6.168;2023-06-22T12:05:36;10.13;;;7.60;;
55720;SDS011;41626;53.098;6.168;2023-06-22T12:08:03;9.90;;;6.85;;
55720;SDS011;41626;53.098;6.168;2023-06-22T12:10:29;9.10;;;7.15;;
55720;SDS011;41626;53.098;6.168;2023-06-22T12:12:55;9.85;;;6.82;;
55720;SDS011;41626;53.098;6.168;2023-06-22T12:15:22;9.65;;;7.07;;
55720;SDS011;41626;53.098;6.168;2023-06-22T12:17:48;9.73;;;7.93;;
55720;SDS011;41626;53.098;6.168;2023-06-22T12:20:14;10.25;;;7.97;;
55720;SDS011;41626;53.098;6.168;2023-06-22T12:22:40;8.33;;;7.53;;
55720;SDS011;41626;53.098;6.168;2023-06-22T12:25:07;8.85;;;8.05;;
55720;SDS011;41626;53.098;6.168;2023-06-22T12:27:34;9.10;;;7.80;;
55720;SDS011;41626;53.098;6.168;2023-06-22T12:30:00;11.40;;;8.52;;
55720;SDS011;41626;53.098;6.168;2023-06-22T12:32:26;10.27;;;9.38;;
55720;SDS011;41626;53.098;6.168;2023-06-22T12:34:51;12.23;;;9.57;;
55720;SDS011;41626;53.098;6.168;2023-06-22T12:37:18;9.70;;;8.80;;
55720;SDS011;41626;53.098;6.168;2023-06-22T12:39:43;11.50;;;10.48;;
55720;SDS011;41626;53.098;6.168;2023-06-22T12:42:09;9.65;;;8.65;;
55720;SDS011;41626;53.098;6.168;2023-06-22T12:44:40;13.77;;;8.75;;
55720;SDS011;41626;53.098;6.168;2023-06-22T12:47:06;9.77;;;8.65;;
55720;SDS011;41626;53.098;6.168;2023-06-22T12:49:33;10.18;;;8.40;;
55720;SDS011;41626;53.098;6.168;2023-06-22T12:52:00;10.98;;;8.77;;
55720;SDS011;41626;53.098;6.168;2023-06-22T12:54:26;12.07;;;8.40;;
55720;SDS011;41626;53.098;6.168;2023-06-22T12:56:52;11.00;;;8.13;;
55720;SDS011;41626;53.098;6.168;2023-06-22T12:59:18;10.53;;;7.60;;
55720;SDS011;41626;53.098;6.168;2023-06-22T13:01:44;9.15;;;7.68;;
55720;SDS011;41626;53.098;6.168;2023-06-22T13:04:10;9.32;;;8.32;;
55720;SDS011;41626;53.098;6.168;2023-06-22T13:06:39;9.77;;;7.82;;
55720;SDS011;41626;53.098;6.168;2023-06-22T13:09:09;8.98;;;8.07;;
55720;SDS011;41626;53.098;6.168;2023-06-22T13:11:35;8.82;;;7.53;;
55720;SDS011;41626;53.098;6.168;2023-06-22T13:14:01;9.27;;;8.30;;
55720;SDS011;41626;53.098;6.168;2023-06-22T13:16:27;12.40;;;7.93;;
55720;SDS011;41626;53.098;6.168;2023-06-22T13:18:52;11.60;;;8.13;;
55720;SDS011;41626;53.098;6.168;2023-06-22T13:21:18;9.17;;;7.40;;
55720;SDS011;41626;53.098;6.168;2023-06-22T13:23:44;7.40;;;6.47;;
55720;SDS011;41626;53.098;6.168;2023-06-22T13:26:09;7.03;;;6.37;;
55720;SDS011;41626;53.098;6.168;2023-06-22T13:28:35;7.00;;;6.28;;
55720;SDS011;41626;53.098;6.168;2023-06-22T13:31:01;7.95;;;6.65;;
55720;SDS011;41626;53.098;6.168;2023-06-22T13:33:26;8.87;;;7.27;;
55720;SDS011;41626;53.098;6.168;2023-06-22T13:35:52;10.43;;;7.40;;
55720;SDS011;41626;53.098;6.168;2023-06-22T13:38:18;8.37;;;6.10;;
55720;SDS011;41626;53.098;6.168;2023-06-22T13:40:44;7.50;;;6.47;;
55720;SDS011;41626;53.098;6.168;2023-06-22T13:43:09;7.72;;;5.93;;
55720;SDS011;41626;53.098;6.168;2023-06-22T13:45:35;6.40;;;5.60;;
55720;SDS011;41626;53.098;6.168;2023-06-22T13:48:01;7.87;;;6.10;;
55720;SDS011;41626;53.098;6.168;2023-06-22T13:50:27;8.65;;;6.60;;
55720;SDS011;41626;53.098;6.168;2023-06-22T13:52:55;6.47;;;5.23;;
55720;SDS011;41626;53.098;6.168;2023-06-22T13:55:21;6.70;;;4.95;;
55720;SDS011;41626;53.098;6.168;2023-06-22T13:57:48;7.78;;;4.72;;
55720;SDS011;41626;53.098;6.168;2023-06-22T14:00:14;6.55;;;5.00;;
55720;SDS011;41626;53.098;6.168;2023-06-22T14:02:40;6.95;;;4.93;;
55720;SDS011;41626;53.098;6.168;2023-06-22T14:05:06;7.35;;;4.63;;
55720;SDS011;41626;53.098;6.168;2023-06-22T14:07:33;4.65;;;4.07;;
55720;SDS011;41626;53.098;6.168;2023-06-22T14:09:59;6.70;;;4.68;;
55720;SDS011;41626;53.098;6.168;2023-06-22T14:12:28;5.82;;;4.35;;
55720;SDS011;41626;53.098;6.168;2023-06-22T14:14:55;8.73;;;4.68;;
55720;SDS011;41626;53.098;6.168;2023-06-22T14:17:20;5.87;;;4.40;;
55720;SDS011;41626;53.098;6.168;2023-06-22T14:19:50;6.45;;;3.90;;
55720;SDS011;41626;53.098;6.168;2023-06-22T14:22:20;7.10;;;4.63;;
55720;SDS011;41626;53.098;6.168;2023-06-22T14:24:47;5.97;;;4.50;;
55720;SDS011;41626;53.098;6.168;2023-06-22T14:27:14;6.78;;;5.10;;
55720;SDS011;41626;53.098;6.168;2023-06-22T14:29:40;9.43;;;5.03;;
55720;SDS011;41626;53.098;6.168;2023-06-22T14:32:06;5.70;;;4.03;;
55720;SDS011;41626;53.098;6.168;2023-06-22T14:34:33;4.38;;;3.97;;